Time;durP1;ratioP1;P1;durP2;ratioP2;P2;SDS_P1;SDS_P2;PMS_P1;PMS_P2;Temp;Humidity;BMP_temperature;BMP_pressure;BME280_temperature;BME280_humidity;BME280_pressure;Samples;Min_cycle;Max_cycle;Signal;HPM_P1;HPM_P2
2022/06/13 00:01:40;;;;;;;8.60;2.10;;;;;;;14.39;70.12;101171.02;107457;1282;73003;-83
2022/06/13 00:04:11;;;;;;;7.00;1.70;;;;;;;14.35;70.26;101172.38;107562;1281;61258;-83
2022/06/13 00:06:46;;;;;;;3.80;2.00;;;;;;;14.31;70.40;101173.27;107259;1282;60348;-82
2022/06/13 00:09:13;;;;;;;5.40;2.20;;;;;;;14.26;70.59;101173.67;107167;1282;75077;-83
2022/06/13 00:11:40;;;;;;;6.90;1.90;;;;;;;14.22;70.84;101170.18;107484;1282;71404;-82
2022/06/13 00:14:08;;;;;;;6.20;1.80;;;;;;;14.19;71.13;101169.73;107255;1282;72991;-83
2022/06/13 00:16:38;;;;;;;7.00;2.70;;;;;;;14.15;71.47;101171.60;107338;1282;61109;-83
2022/06/13 00:19:05;;;;;;;7.30;2.00;;;;;;;14.13;71.88;101170.10;107560;1281;60172;-83
2022/06/13 00:21:35;;;;;;;6.30;1.90;;;;;;;14.11;71.67;101170.66;107767;1281;74963;-83
2022/06/13 00:24:07;;;;;;;5.70;2.10;;;;;;;14.08;72.05;101170.80;107431;1282;71826;-83
2022/06/13 00:26:36;;;;;;;8.10;2.70;;;;;;;14.05;72.25;101170.33;107256;1282;71945;-83
2022/06/13 00:29:04;;;;;;;7.60;1.90;;;;;;;14.02;72.28;101177.10;107686;1282;62294;-84
2022/06/13 00:31:31;;;;;;;9.20;2.20;;;;;;;13.98;72.69;101179.15;107594;1281;60950;-82
2022/06/13 00:34:01;;;;;;;6.50;1.80;;;;;;;14.00;72.83;101180.53;107864;1282;74888;-83
2022/06/13 00:36:27;;;;;;;3.20;1.60;;;;;;;14.00;72.72;101177.69;107998;1281;71429;-83
2022/06/13 00:38:55;;;;;;;9.50;3.10;;;;;;;14.02;72.87;101174.98;107665;1282;73163;-83
2022/06/13 00:41:28;;;;;;;4.60;2.10;;;;;;;14.03;73.09;101176.60;107464;1282;62258;-83
2022/06/13 00:43:58;;;;;;;5.10;2.10;;;;;;;14.04;73.18;101173.45;107565;1282;61262;-83
2022/06/13 00:46:40;;;;;;;6.20;2.20;;;;;;;14.05;73.14;101175.67;107292;1282;76125;-83
2022/06/13 00:49:11;;;;;;;8.70;2.00;;;;;;;14.06;73.21;101175.39;107337;1281;71116;-85
2022/06/13 00:51:49;;;;;;;3.90;1.80;;;;;;;14.04;73.42;101176.40;107584;1280;72942;-83
2022/06/13 00:54:21;;;;;;;4.30;1.70;;;;;;;14.04;73.22;101174.67;107654;1280;62046;-82
2022/06/13 00:56:51;;;;;;;7.40;2.40;;;;;;;14.04;73.97;101176.55;107632;1281;60508;-85
2022/06/13 00:59:37;;;;;;;;;;;;;;;;;;;;;
2022/06/13 01:02:07;;;;;;;7.60;2.60;;;;;;;14.02;73.76;101178.65;107577;1281;71484;-86
2022/06/13 01:04:40;;;;;;;4.80;1.50;;;;;;;14.02;73.84;101176.61;107460;1282;74921;-83
2022/06/13 01:07:09;;;;;;;4.80;1.90;;;;;;;13.99;74.20;101173.67;107516;1282;63623;-84
2022/06/13 01:12:45;;;;;;;7.30;2.20;;;;;;;13.93;74.02;101172.02;107357;1281;76361;-83
2022/06/13 01:15:58;;;;;;;4.70;1.90;;;;;;;13.89;74.00;101170.17;107493;1281;73605;-83
2022/06/13 01:19:06;;;;;;;7.70;1.80;;;;;;;13.83;73.90;101170.59;107489;1281;73226;-82
2022/06/13 01:21:42;;;;;;;4.40;1.90;;;;;;;13.79;74.03;101173.94;107273;1282;61253;-83
2022/06/13 01:24:22;;;;;;;7.60;2.50;;;;;;;13.75;74.46;101172.02;107670;1281;61609;-83
2022/06/13 01:27:16;;;;;;;7.00;2.30;;;;;;;13.67;74.23;101171.11;107431;1282;75689;-83
2022/06/13 01:29:52;;;;;;;6.90;2.40;;;;;;;13.59;74.42;101165.61;107548;1282;71445;-85
2022/06/13 01:32:55;;;;;;;9.60;2.80;;;;;;;13.50;74.54;101168.92;107489;1282;72987;-84
2022/06/13 01:35:37;;;;;;;8.20;2.30;;;;;;;13.39;74.67;101163.20;107606;1282;63621;-84
2022/06/13 01:38:20;;;;;;;11.10;2.70;;;;;;;13.31;75.18;101161.58;107537;1281;60593;-83
2022/06/13 01:41:19;;;;;;;;;;;;;;;;;;;;;
2022/06/13 01:43:51;;;;;;;7.10;2.80;;;;;;;13.13;75.90;101148.45;107454;1281;71828;-85
2022/06/13 01:46:21;;;;;;;7.10;2.20;;;;;;;13.05;76.12;101145.83;107591;1281;73292;-83
2022/06/13 01:49:43;;;;;;;6.50;2.20;;;;;;;12.98;76.51;101151.00;107444;1282;60867;-84
2022/06/13 01:52:21;;;;;;;9.60;2.30;;;;;;;12.91;77.05;101151.67;106987;1284;60181;-84
2022/06/13 01:55:00;;;;;;;8.60;2.60;;;;;;;12.87;77.20;101149.86;107318;1282;75001;-84
2022/06/13 01:57:38;;;;;;;8.00;2.20;;;;;;;12.81;77.15;101146.71;107514;1281;71391;-84
2022/06/13 02:00:25;;;;;;;5.40;2.40;;;;;;;12.75;77.40;101145.49;107630;1281;74143;-84
2022/06/13 02:03:05;;;;;;;7.00;2.50;;;;;;;12.69;77.66;101145.20;107605;1281;62220;-84
2022/06/13 02:06:09;;;;;;;6.70;3.20;;;;;;;12.61;77.99;101138.25;107602;1281;63184;-83
2022/06/13 02:09:11;;;;;;;21.50;4.70;;;;;;;12.52;78.28;101133.79;107607;1281;75364;-84
2022/06/13 02:11:48;;;;;;;7.90;2.30;;;;;;;12.44;78.63;101138.82;107380;1281;71401;-83
2022/06/13 02:14:23;;;;;;;6.30;2.50;;;;;;;12.36;79.24;101136.89;107538;1281;73027;-84
2022/06/13 02:17:11;;;;;;;6.00;2.60;;;;;;;12.30;79.52;101142.43;107491;1281;62210;-83
2022/06/13 02:19:41;;;;;;;6.10;2.50;;;;;;;12.21;79.86;101147.20;107653;1281;61209;-84
2022/06/13 02:22:52;;;;;;;11.40;3.10;;;;;;;12.16;80.17;101143.07;107608;1281;76066;-83
2022/06/13 02:25:25;;;;;;;6.60;2.20;;;;;;;12.08;80.88;101143.12;107172;1282;73097;-83
2022/06/13 02:28:07;;;;;;;6.60;2.20;;;;;;;12.03;81.20;101149.83;107758;1281;73076;-84
2022/06/13 02:30:40;;;;;;;9.00;2.60;;;;;;;11.98;81.54;101152.00;108058;1281;63917;-83
2022/06/13 02:33:13;;;;;;;9.20;2.90;;;;;;;11.94;82.51;101164.22;107912;1281;60491;-84
2022/06/13 02:35:48;;;;;;;7.10;2.20;;;;;;;11.87;82.69;101165.77;107888;1281;74968;-83
2022/06/13 02:39:29;;;;;;;8.90;2.60;;;;;;;11.83;82.66;101160.90;107743;1281;71352;-84
2022/06/13 02:42:15;;;;;;;9.10;3.20;;;;;;;11.77;83.08;101157.91;106777;1283;73260;-83
2022/06/13 02:44:52;;;;;;;8.10;2.60;;;;;;;11.72;83.09;101159.48;107233;1282;63585;-82
2022/06/13 02:47:30;;;;;;;6.10;3.00;;;;;;;11.67;83.29;101154.74;107568;1281;61397;-86
2022/06/13 02:50:04;;;;;;;9.80;2.50;;;;;;;11.64;83.43;101156.69;107671;1281;75292;-84
2022/06/13 02:52:49;;;;;;;8.00;2.40;;;;;;;11.62;83.69;101154.56;107553;1281;71467;-83
2022/06/13 02:55:18;;;;;;;7.70;2.80;;;;;;;11.61;83.81;101153.98;107409;1281;73887;-84
2022/06/13 02:58:28;;;;;;;11.10;2.70;;;;;;;11.60;83.83;101155.50;107263;1282;63353;-85
2022/06/13 03:01:16;;;;;;;8.10;2.60;;;;;;;11.59;84.09;101156.00;106616;1288;61189;-85
2022/06/13 03:04:02;;;;;;;10.50;3.50;;;;;;;11.58;84.22;101156.25;107508;1281;75733;-84
2022/06/13 03:06:51;;;;;;;9.20;2.90;;;;;;;11.57;84.43;101148.19;107676;1281;72020;-84
2022/06/13 03:09:36;;;;;;;7.20;2.70;;;;;;;11.58;84.59;101145.86;107564;1281;73255;-83
2022/06/13 03:12:08;;;;;;;;;;;;;;;11.59;84.90;101143.94;107724;1281;62532;-84
2022/06/13 03:14:45;;;;;;;8.80;2.30;;;;;;;11.61;85.22;101137.52;107492;1281;60741;-85
2022/06/13 03:17:24;;;;;;;7.80;2.10;;;;;;;11.63;85.30;101133.40;107507;1281;76222;-84
2022/06/13 03:20:06;;;;;;;9.40;2.70;;;;;;;11.66;85.33;101132.52;107501;1281;74067;-84
2022/06/13 03:22:43;;;;;;;6.10;2.20;;;;;;;11.70;85.40;101135.83;107467;1281;73087;-84
2022/06/13 03:25:36;;;;;;;9.90;2.90;;;;;;;11.70;85.50;101136.30;107544;1281;63135;-84
2022/06/13 03:28:19;;;;;;;9.10;2.80;;;;;;;11.79;85.55;101149.66;107516;1281;60666;-85
2022/06/13 03:31:16;;;;;;;8.50;2.50;;;;;;;11.84;85.65;101153.65;107446;1281;76256;-84
2022/06/13 03:33:48;;;;;;;8.40;3.60;;;;;;;11.89;85.95;101160.14;107502;1281;71062;-83
2022/06/13 03:36:35;;;;;;;8.00;3.10;;;;;;;11.91;85.81;101167.48;107292;1282;72177;-83
2022/06/13 03:39:17;;;;;;;6.50;3.00;;;;;;;11.95;85.93;101172.92;107532;1281;63665;-82
2022/06/13 03:41:50;;;;;;;12.60;3.30;;;;;;;11.98;85.65;101174.67;107386;1281;61958;-84
2022/06/13 03:44:34;;;;;;;6.70;2.40;;;;;;;12.01;85.55;101176.00;107485;1282;74951;-83
2022/06/13 03:47:33;;;;;;;6.20;3.10;;;;;;;12.01;85.40;101170.40;107427;1282;73053;-84
2022/06/13 03:50:11;;;;;;;9.80;3.20;;;;;;;12.04;85.35;101177.41;107506;1281;72627;-83
2022/06/13 03:52:45;;;;;;;11.20;3.40;;;;;;;12.05;85.56;101176.41;107294;1282;63796;-84
2022/06/13 03:55:22;;;;;;;5.80;3.00;;;;;;;12.06;86.06;101184.65;107585;1281;60619;-83
2022/06/13 03:57:56;;;;;;;8.40;3.00;;;;;;;12.09;86.14;101188.77;107432;1281;75030;-83
2022/06/13 04:00:28;;;;;;;8.00;3.40;;;;;;;12.13;86.09;101198.87;107180;1282;71432;-84
2022/06/13 04:02:58;;;;;;;11.40;3.30;;;;;;;12.19;86.28;101198.35;107417;1282;71596;-84
2022/06/13 04:05:36;;;;;;;10.70;3.00;;;;;;;12.25;86.21;101195.97;107367;1282;63216;-82
2022/06/13 04:08:06;;;;;;;12.40;3.90;;;;;;;12.34;86.09;101194.76;107452;1281;61812;-85
2022/06/13 04:10:49;;;;;;;11.10;4.30;;;;;;;12.44;86.25;101189.84;107334;1281;76467;-85
2022/06/13 04:13:58;;;;;;;12.10;3.50;;;;;;;12.57;86.05;101182.92;107466;1281;71521;-83
2022/06/13 04:16:54;;;;;;;9.90;3.70;;;;;;;12.71;85.68;101184.35;107582;1281;72742;-85
2022/06/13 04:20:10;;;;;;;8.30;2.90;;;;;;;12.79;85.35;101181.77;107609;1281;62268;-82
2022/06/13 04:23:28;;;;;;;7.60;2.70;;;;;;;12.85;85.08;101180.55;107485;1282;61660;-82
2022/06/13 04:26:14;;;;;;;7.70;3.10;;;;;;;12.89;84.98;101159.19;106579;1290;75289;-83
2022/06/13 04:28:49;;;;;;;7.70;2.70;;;;;;;12.91;84.86;101146.84;106377;1290;72506;-83
2022/06/13 04:31:21;;;;;;;9.00;2.90;;;;;;;12.94;84.91;101138.69;107236;1283;72528;-83
2022/06/13 04:33:52;;;;;;;6.10;2.60;;;;;;;12.97;84.87;101136.44;107385;1284;63571;-83
2022/06/13 04:36:21;;;;;;;11.90;3.00;;;;;;;12.99;84.61;101138.96;107372;1281;60671;-83
2022/06/13 04:38:54;;;;;;;12.20;3.80;;;;;;;13.01;84.30;101149.52;107526;1282;74892;-85
2022/06/13 04:41:25;;;;;;;19.70;4.80;;;;;;;13.03;84.19;101144.02;107620;1282;71593;-86
2022/06/13 04:43:56;;;;;;;9.00;2.60;;;;;;;13.05;84.12;101141.52;107513;1283;74467;-85
2022/06/13 04:46:31;;;;;;;11.20;3.50;;;;;;;13.08;84.16;101139.02;107481;1282;62721;-85
2022/06/13 04:49:45;;;;;;;;;;;;;;;;;;;;;
2022/06/13 04:52:29;;;;;;;6.10;2.70;;;;;;;13.15;84.16;101155.38;107532;1281;73895;-86
2022/06/13 04:55:12;;;;;;;9.30;3.30;;;;;;;13.18;83.80;101162.84;107699;1281;71390;-85
2022/06/13 04:57:52;;;;;;;8.80;3.10;;;;;;;13.21;83.85;101157.75;107650;1282;73035;-85
2022/06/13 05:00:35;;;;;;;;;;;;;;;;;;;;;
2022/06/13 05:03:22;;;;;;;11.20;3.80;;;;;;;13.28;83.80;101168.86;107200;1282;60623;-85
2022/06/13 05:06:15;;;;;;;10.80;2.80;;;;;;;13.32;83.70;101170.90;107379;1283;74366;-84
2022/06/13 05:09:18;;;;;;;10.00;2.60;;;;;;;13.36;83.70;101176.84;107566;1282;71573;-86
2022/06/13 05:12:05;;;;;;;;;;;;;;;;;;;;;
2022/06/13 05:15:10;;;;;;;9.40;2.90;;;;;;;13.40;83.78;101175.22;107571;1283;62669;-87
2022/06/13 05:18:25;;;;;;;10.30;4.20;;;;;;;13.46;83.76;101166.86;107541;1282;61385;-87
2022/06/13 05:21:19;;;;;;;7.30;3.20;;;;;;;13.55;83.53;101168.64;107605;1281;76414;-84
2022/06/13 05:24:11;;;;;;;;;;;;;;;;;;;;;
2022/06/13 05:26:45;;;;;;;8.30;3.50;;;;;;;13.64;82.41;101166.68;107554;1281;74085;-85
2022/06/13 05:29:12;;;;;;;14.80;3.30;;;;;;;13.69;82.79;101176.33;107691;1281;62800;-84
2022/06/13 05:31:54;;;;;;;;;;;;;;;;;;;;;
2022/06/13 05:34:35;;;;;;;10.00;2.60;;;;;;;13.83;81.81;101174.52;107517;1282;75943;-85
2022/06/13 05:37:35;;;;;;;10.90;2.70;;;;;;;13.91;80.78;101173.08;107441;1281;73038;-86
2022/06/13 05:40:56;;;;;;;7.90;2.30;;;;;;;14.06;80.25;101175.02;107393;1282;73517;-87
2022/06/13 05:43:40;;;;;;;11.70;3.50;;;;;;;14.23;79.71;101173.80;107269;1282;62788;-87
2022/06/13 05:46:32;;;;;;;8.50;2.00;;;;;;;14.34;78.93;101171.45;107208;1282;60186;-87
2022/06/13 05:49:18;;;;;;;9.10;2.90;;;;;;;14.49;78.08;101172.80;107311;1281;77524;-87
2022/06/13 05:51:56;;;;;;;12.60;3.80;;;;;;;14.60;77.00;101174.24;107390;1270;71792;-86
2022/06/13 05:54:33;;;;;;;6.80;2.10;;;;;;;14.74;76.40;101182.52;107534;1279;73074;-85
2022/06/13 05:57:01;;;;;;;7.30;3.30;;;;;;;14.96;75.59;101185.67;107417;1279;63701;-85
2022/06/13 05:59:34;;;;;;;8.20;2.50;;;;;;;15.23;75.47;101183.80;107546;1279;60572;-85
2022/06/13 06:02:09;;;;;;;9.00;2.70;;;;;;;15.42;73.59;101180.91;107508;1279;76132;-85
2022/06/13 06:04:39;;;;;;;7.10;2.10;;;;;;;15.60;72.83;101185.67;107361;1280;70223;-85
2022/06/13 06:07:19;;;;;;;13.60;7.60;;;;;;;15.79;71.86;101181.86;107441;1279;72057;-85
2022/06/13 06:09:51;;;;;;;8.70;2.40;;;;;;;15.90;69.94;101187.02;107936;1279;63148;-85
2022/06/13 06:12:18;;;;;;;13.00;3.00;;;;;;;15.92;69.19;101183.04;108054;1280;60848;-85
2022/06/13 06:14:48;;;;;;;7.80;3.20;;;;;;;15.88;68.51;101189.55;107893;1279;75377;-86
2022/06/13 06:17:21;;;;;;;7.20;2.60;;;;;;;15.86;69.08;101191.83;107943;1279;71360;-85
2022/06/13 06:20:11;;;;;;;9.10;2.90;;;;;;;15.83;69.38;101192.21;107902;1279;73098;-88
2022/06/13 06:22:58;;;;;;;9.20;2.00;;;;;;;15.86;69.56;101189.18;107510;1279;62976;-86
2022/06/13 06:25:31;;;;;;;6.10;2.20;;;;;;;15.86;68.74;101189.81;107681;1279;60073;-85
2022/06/13 06:27:58;;;;;;;5.60;2.10;;;;;;;15.91;68.12;101191.84;107796;1277;75005;-85
2022/06/13 06:30:27;;;;;;;7.80;2.70;;;;;;;15.88;67.07;101197.20;107564;1279;71212;-86
2022/06/13 06:32:55;;;;;;;9.20;2.70;;;;;;;15.87;67.46;101197.06;107408;1280;72970;-85
2022/06/13 06:35:26;;;;;;;10.90;3.60;;;;;;;15.91;67.66;101201.15;107196;1281;62790;-87
2022/06/13 06:37:55;;;;;;;7.60;2.90;;;;;;;15.96;67.26;101198.45;107719;1279;62552;-85
2022/06/13 06:40:25;;;;;;;9.40;2.90;;;;;;;15.99;66.96;101200.12;107563;1279;76385;-85
2022/06/13 06:43:05;;;;;;;9.30;2.00;;;;;;;16.07;67.03;101195.88;107346;1279;71445;-87
2022/06/13 06:45:33;;;;;;;10.40;2.70;;;;;;;16.11;66.26;101190.71;107194;1279;72585;-88
2022/06/13 06:48:04;;;;;;;7.00;2.10;;;;;;;16.18;66.11;101193.74;107536;1279;62067;-86
2022/06/13 06:50:41;;;;;;;5.70;1.90;;;;;;;16.24;65.34;101196.04;107052;1268;61317;-87
2022/06/13 06:53:10;;;;;;;8.90;2.50;;;;;;;16.28;64.95;101195.27;107627;1279;73674;-83
2022/06/13 07:01:13;;;;;;;9.40;2.50;;;;;;;16.40;63.83;101194.08;107615;1279;61832;-83
2022/06/13 07:03:41;;;;;;;7.00;2.00;;;;;;;16.42;63.67;101190.80;107250;1279;60710;-85
2022/06/13 07:06:12;;;;;;;7.90;2.00;;;;;;;16.46;63.23;101196.52;107473;1279;76044;-83
2022/06/13 07:08:38;;;;;;;8.50;2.60;;;;;;;16.45;62.68;101195.73;107566;1279;71406;-85
2022/06/13 07:14:02;;;;;;;5.60;2.10;;;;;;;16.32;63.37;101194.25;107520;1279;60992;-85
2022/06/13 07:16:38;;;;;;;9.60;2.50;;;;;;;16.24;63.93;101196.16;107950;1279;61369;-85
2022/06/13 07:19:10;;;;;;;5.90;2.30;;;;;;;16.17;64.66;101193.16;107557;1279;73760;-85
2022/06/13 07:21:40;;;;;;;7.50;2.50;;;;;;;16.11;64.27;101190.92;107664;1278;70546;-88
2022/06/13 07:24:17;;;;;;;11.80;2.40;;;;;;;16.15;64.10;101190.73;107556;1277;73979;-86
2022/06/13 07:26:56;;;;;;;8.00;1.70;;;;;;;16.24;64.16;101191.51;107708;1279;60328;-88
2022/06/13 07:29:23;;;;;;;8.50;3.30;;;;;;;16.39;63.75;101190.27;107535;1279;60612;-86
2022/06/13 07:31:54;;;;;;;8.10;2.10;;;;;;;16.53;63.03;101180.59;107010;1281;74914;-83
2022/06/13 07:34:25;;;;;;;6.60;2.10;;;;;;;16.69;62.43;101180.14;107542;1279;71309;-84
2022/06/13 07:36:54;;;;;;;7.00;2.00;;;;;;;16.81;62.61;101182.15;107794;1279;73511;-83
2022/06/13 07:39:21;;;;;;;;;;;;;;;16.88;62.45;101184.15;107352;1280;61762;-83
2022/06/13 07:41:48;;;;;;;;;;;;;;;16.94;62.23;101187.21;107546;1279;61271;-84
2022/06/13 07:44:23;;;;;;;9.20;2.40;;;;;;;16.97;62.47;101191.30;107407;1279;75484;-83
2022/06/13 07:46:51;;;;;;;8.30;2.60;;;;;;;16.99;62.09;101193.35;107504;1279;72659;-84
2022/06/13 07:49:24;;;;;;;5.10;2.00;;;;;;;17.11;60.73;101199.58;107633;1280;74012;-84
2022/06/13 07:51:51;;;;;;;11.30;4.50;;;;;;;17.28;59.47;101194.27;107083;1281;60575;-85
2022/06/13 07:54:18;;;;;;;8.60;2.10;;;;;;;17.31;59.68;101191.70;107597;1279;60981;-85
2022/06/13 07:56:45;;;;;;;9.40;2.60;;;;;;;17.44;58.43;101196.89;107433;1279;73855;-84
2022/06/13 07:59:19;;;;;;;6.90;2.00;;;;;;;17.50;58.90;101193.88;107468;1279;73194;-84
2022/06/13 08:01:46;;;;;;;9.30;3.00;;;;;;;17.59;57.69;101194.70;107327;1279;73886;-84
2022/06/13 08:04:13;;;;;;;4.90;1.50;;;;;;;17.66;57.21;101197.48;107417;1279;60582;-84
2022/06/13 08:06:42;;;;;;;9.90;2.50;;;;;;;17.73;56.34;101189.86;107335;1279;61035;-83
2022/06/13 08:09:14;;;;;;;9.10;2.40;;;;;;;17.90;56.31;101191.67;107679;1279;76277;-83
2022/06/13 08:11:47;;;;;;;6.50;2.30;;;;;;;18.06;53.99;101191.05;107363;1281;71726;-85
2022/06/13 08:14:14;;;;;;;6.90;1.50;;;;;;;18.07;53.32;101192.98;107674;1279;73188;-84
2022/06/13 08:16:41;;;;;;;6.50;1.90;;;;;;;18.06;52.74;101198.09;107390;1279;60672;-85
2022/06/13 08:19:09;;;;;;;5.20;2.10;;;;;;;18.03;53.32;101194.39;107773;1279;61681;-85
2022/06/13 08:21:37;;;;;;;8.80;4.20;;;;;;;18.05;52.44;101192.52;107445;1279;76209;-85
2022/06/13 08:24:07;;;;;;;5.30;1.90;;;;;;;17.99;53.17;101195.19;107183;1280;70960;-86
2022/06/13 08:26:40;;;;;;;5.80;1.60;;;;;;;17.97;53.54;101192.52;107092;1279;74181;-83
2022/06/13 08:29:07;;;;;;;7.00;2.70;;;;;;;18.18;52.97;101187.68;107942;1277;61751;-84
2022/06/13 08:31:35;;;;;;;8.70;1.70;;;;;;;18.40;52.85;101197.98;107639;1279;61367;-85
2022/06/13 08:34:04;;;;;;;7.40;1.90;;;;;;;18.55;50.67;101191.88;107063;1281;74664;-85
2022/06/13 08:36:31;;;;;;;6.80;2.30;;;;;;;18.60;51.49;101194.79;106984;1279;71928;-84
2022/06/13 08:38:58;;;;;;;5.60;2.20;;;;;;;18.51;51.02;101202.29;107783;1279;71444;-84
2022/06/13 08:41:43;;;;;;;7.10;1.70;;;;;;;18.30;51.12;101198.42;107820;1279;60647;-84
2022/06/13 08:44:47;;;;;;;8.20;1.80;;;;;;;17.97;52.53;101205.89;107515;1280;60626;-86
2022/06/13 08:47:32;;;;;;;5.70;1.60;;;;;;;17.70;52.84;101198.25;107166;1279;445274;-85
2022/06/13 08:50:15;;;;;;;3.60;1.30;;;;;;;17.60;53.62;101198.65;106988;1282;72525;-84
2022/06/13 08:52:42;;;;;;;8.00;2.50;;;;;;;17.77;52.78;101202.62;107169;1281;74230;-86
2022/06/13 08:55:16;;;;;;;5.60;1.10;;;;;;;18.07;52.45;101199.30;107583;1279;61250;-86
2022/06/13 08:57:50;;;;;;;7.30;1.60;;;;;;;18.35;51.22;101201.62;107541;1279;60539;-85
2022/06/13 09:00:22;;;;;;;6.00;1.90;;;;;;;18.57;50.97;101198.05;107255;1279;76160;-85
2022/06/13 09:03:00;;;;;;;4.70;1.80;;;;;;;18.70;48.82;101200.43;107601;1279;71544;-84
2022/06/13 09:05:41;;;;;;;5.30;1.40;;;;;;;18.81;45.96;101207.45;107800;1279;73451;-84
2022/06/13 09:08:25;;;;;;;5.60;1.60;;;;;;;18.94;44.73;101203.27;107119;1281;60272;-83
2022/06/13 09:11:03;;;;;;;4.50;1.40;;;;;;;19.11;44.15;101207.95;107785;1279;60514;-82
2022/06/13 09:13:57;;;;;;;7.30;1.50;;;;;;;19.47;44.18;101203.38;107370;1279;75076;-86
2022/06/13 09:16:33;;;;;;;6.20;1.70;;;;;;;19.61;44.03;101192.88;107466;1279;71345;-86
2022/06/13 09:19:11;;;;;;;7.30;2.90;;;;;;;19.63;44.61;101187.36;107497;1281;72498;-83
2022/06/13 09:21:45;;;;;;;5.90;2.20;;;;;;;19.72;45.10;101190.69;107791;1279;61734;-81
2022/06/13 09:24:27;;;;;;;7.30;2.00;;;;;;;19.85;44.52;101189.02;107535;1279;60622;-81
2022/06/13 09:27:11;;;;;;;5.10;1.60;;;;;;;20.03;42.50;101190.46;107275;1279;75022;-81
2022/06/13 09:29:51;;;;;;;6.00;2.10;;;;;;;20.09;42.58;101185.63;107260;1279;71302;-82
2022/06/13 09:32:20;;;;;;;5.40;1.30;;;;;;;19.99;42.74;101186.86;107515;1279;74205;-82
2022/06/13 09:34:51;;;;;;;5.20;1.80;;;;;;;19.91;43.31;101186.84;107375;1279;60773;-81
2022/06/13 09:37:21;;;;;;;5.20;1.30;;;;;;;19.65;43.08;101192.90;107603;1279;61210;-84
2022/06/13 09:39:48;;;;;;;5.30;1.70;;;;;;;19.42;44.80;101195.27;107637;1279;76009;-84
2022/06/13 09:42:24;;;;;;;4.70;1.60;;;;;;;19.18;45.94;101197.88;107396;1281;72441;-85
2022/06/13 09:45:17;;;;;;;4.10;1.50;;;;;;;18.89;47.43;101196.23;107590;1279;71812;-84
2022/06/13 09:48:06;;;;;;;5.10;1.40;;;;;;;18.58;49.01;101200.88;107642;1279;61820;-84
2022/06/13 09:50:48;;;;;;;4.50;1.40;;;;;;;18.25;48.66;101201.04;107851;1279;61701;-85
2022/06/13 09:53:56;;;;;;;5.50;1.80;;;;;;;18.11;49.44;101201.02;107628;1279;75634;-85
2022/06/13 09:56:45;;;;;;;3.50;1.00;;;;;;;18.17;49.04;101207.65;107581;1279;71417;-84
2022/06/13 09:59:40;;;;;;;7.20;1.60;;;;;;;18.17;48.48;101212.73;107751;1279;73307;-83
2022/06/13 10:02:17;;;;;;;5.00;1.30;;;;;;;18.10;49.08;101216.05;107797;1279;62173;-85
2022/06/13 10:05:06;;;;;;;5.90;1.70;;;;;;;17.76;54.68;101255.91;107733;1279;61913;-82
2022/06/13 10:07:48;;;;;;;5.10;1.10;;;;;;;16.50;68.42;101276.48;107451;1279;76515;-82
2022/06/13 10:10:22;;;;;;;5.60;0.80;;;;;;;15.44;66.44;101264.74;107769;1279;71389;-82
2022/06/13 10:12:51;;;;;;;4.90;1.10;;;;;;;14.73;65.97;101267.08;107574;1279;74591;-82
2022/06/13 10:15:20;;;;;;;2.40;1.10;;;;;;;14.25;65.95;101273.54;107464;1279;61476;-83
2022/06/13 10:17:56;;;;;;;2.70;1.60;;;;;;;13.72;67.51;101278.10;107803;1279;60159;-83
2022/06/13 10:20:39;;;;;;;7.30;4.00;;;;;;;13.26;71.30;101246.27;107790;1279;74762;-81
2022/06/13 10:23:28;;;;;;;3.70;1.20;;;;;;;13.05;71.03;101247.55;107790;1279;71545;-89
2022/06/13 10:31:40;;;;;;;4.30;1.40;;;;;;;13.19;70.81;101240.92;107634;1279;60757;-85
2022/06/13 10:34:32;;;;;;;2.40;1.10;;;;;;;13.31;71.11;101237.82;107524;1279;74915;-85
2022/06/13 10:37:22;;;;;;;2.80;1.30;;;;;;;13.65;71.83;101234.09;107346;1279;72462;-85
2022/06/13 10:39:54;;;;;;;3.80;1.00;;;;;;;14.09;73.25;101231.34;107602;1279;73004;-86
2022/06/13 10:42:27;;;;;;;3.60;1.00;;;;;;;14.58;72.06;101236.02;107573;1279;63247;-85
2022/06/13 10:44:54;;;;;;;3.10;1.00;;;;;;;15.03;65.91;101237.90;107155;1279;61616;-84
2022/06/13 10:47:35;;;;;;;5.90;1.40;;;;;;;15.50;64.71;101249.61;107596;1279;76142;-85
2022/06/13 10:50:18;;;;;;;6.30;1.90;;;;;;;16.16;65.10;101248.01;107733;1279;71395;-84
2022/06/13 10:52:49;;;;;;;3.30;1.30;;;;;;;16.84;61.41;101248.40;107531;1278;73938;-85
2022/06/13 10:55:23;;;;;;;2.00;0.80;;;;;;;17.30;61.38;101241.83;107566;1279;62224;-86
2022/06/13 10:58:00;;;;;;;2.90;1.10;;;;;;;17.43;57.60;101253.55;107711;1279;61406;-84
2022/06/13 11:00:30;;;;;;;3.90;1.60;;;;;;;17.32;58.60;101269.09;108058;1279;76791;-84
2022/06/13 11:03:10;;;;;;;4.90;1.20;;;;;;;16.98;62.80;101291.93;107552;1281;71575;-85
2022/06/13 11:05:50;;;;;;;3.40;1.40;;;;;;;16.22;66.64;101304.98;107850;1279;74690;-85
2022/06/13 11:08:17;;;;;;;6.00;1.30;;;;;;;15.42;70.60;101290.73;107681;1279;61374;-84
2022/06/13 11:11:16;;;;;;;4.20;1.30;;;;;;;14.87;73.13;101254.64;107607;1279;60828;-83
2022/06/13 11:13:53;;;;;;;2.80;1.00;;;;;;;14.66;77.06;101254.38;107679;1279;75198;-84
2022/06/13 11:22:38;;;;;;;5.70;1.20;;;;;;;14.57;77.97;101285.42;107885;1279;61282;-84
2022/06/13 11:25:21;;;;;;;3.40;1.40;;;;;;;14.84;78.04;101282.27;107797;1279;60746;-84
2022/06/13 11:28:00;;;;;;;5.30;1.60;;;;;;;15.25;76.05;101277.40;107683;1279;75018;-83
2022/06/13 11:30:27;;;;;;;3.50;1.50;;;;;;;15.48;74.08;101282.87;107982;1280;72400;-84
2022/06/13 11:33:09;;;;;;;5.80;1.60;;;;;;;15.44;72.89;101289.23;107985;1279;74058;-84
2022/06/13 11:35:43;;;;;;;4.70;1.80;;;;;;;15.31;73.95;101283.46;107667;1280;62139;-84
2022/06/13 11:38:13;;;;;;;4.30;1.70;;;;;;;15.28;74.05;101284.48;107797;1279;60307;-83
2022/06/13 11:40:41;;;;;;;6.00;1.80;;;;;;;15.20;73.94;101287.48;107800;1279;76183;-83
2022/06/13 11:43:21;;;;;;;6.40;2.60;;;;;;;15.07;75.24;101292.61;107726;1279;71407;-83
2022/06/13 11:45:57;;;;;;;6.10;2.30;;;;;;;14.93;75.69;101301.09;107504;1281;72214;-84
2022/06/13 11:48:28;;;;;;;8.40;1.70;;;;;;;14.67;76.34;101313.53;107283;1281;65369;-85
2022/06/13 11:50:59;;;;;;;3.90;1.60;;;;;;;14.28;78.18;101319.15;107524;1281;61549;-84
2022/06/13 11:53:38;;;;;;;8.20;2.40;;;;;;;14.04;80.07;101318.07;107405;1279;76038;-84
2022/06/13 11:56:14;;;;;;;4.00;1.80;;;;;;;13.92;81.29;101330.82;107647;1279;72983;-84
2022/06/13 11:58:47;;;;;;;6.80;2.40;;;;;;;13.91;81.02;101332.80;107596;1279;73899;-85
2022/06/13 12:01:17;;;;;;;2.90;1.10;;;;;;;14.03;81.45;101330.98;107670;1280;63514;-84
2022/06/13 12:03:58;;;;;;;2.60;1.20;;;;;;;14.11;80.20;101330.23;107653;1279;60440;-85
2022/06/13 12:06:31;;;;;;;2.00;1.20;;;;;;;14.19;80.31;101331.91;107587;1281;75007;-84
2022/06/13 12:09:14;;;;;;;2.70;0.80;;;;;;;14.37;80.02;101326.59;107414;1279;72782;-83
2022/06/13 12:12:05;;;;;;;1.60;1.00;;;;;;;14.67;78.66;101320.48;107221;1279;73589;-84
2022/06/13 12:14:41;;;;;;;4.30;1.00;;;;;;;15.22;77.33;101320.48;107821;1279;62281;-83
2022/06/13 12:17:11;;;;;;;4.00;1.20;;;;;;;16.01;74.77;101317.66;107222;1281;61417;-82
2022/06/13 12:19:40;;;;;;;2.50;0.90;;;;;;;16.93;73.66;101308.15;107889;1279;75785;-82
2022/06/13 12:22:15;;;;;;;5.50;1.30;;;;;;;17.83;71.40;101306.34;107773;1279;72210;-82
2022/06/13 12:24:57;;;;;;;3.30;0.90;;;;;;;18.39;66.94;101307.42;107529;1279;72944;-82
2022/06/13 12:27:33;;;;;;;5.10;1.60;;;;;;;18.66;64.31;101299.39;107733;1279;61761;-82
2022/06/13 12:30:31;;;;;;;4.10;0.90;;;;;;;18.70;62.96;101299.58;107188;1282;61861;-81
2022/06/13 12:33:22;;;;;;;1.50;0.90;;;;;;;19.04;62.04;101296.48;107722;1279;76183;-83
2022/06/13 12:36:11;;;;;;;1.80;0.70;;;;;;;19.74;59.17;101301.45;107090;1279;72520;-83
2022/06/13 12:38:56;;;;;;;4.70;1.10;;;;;;;19.84;56.96;101293.87;107733;1279;73108;-83
2022/06/13 12:41:36;;;;;;;4.80;1.10;;;;;;;20.18;57.64;101285.68;107313;1281;64542;-83
2022/06/13 12:44:28;;;;;;;4.00;1.00;;;;;;;20.38;56.95;101291.75;107029;1281;61315;-83